Time;durP1;ratioP1;P1;durP2;ratioP2;P2;SDS_P1;SDS_P2;PMS_P1;PMS_P2;Temp;Humidity;BMP_temperature;BMP_pressure;BME280_temperature;BME280_humidity;BME280_pressure;Samples;Min_cycle;Max_cycle;Signal;HPM_P1;HPM_P2
2023/04/23 00:00:11;;;;;;;24.17;2.30;;;;;;;;;;5093008;28;20020;-69
2023/04/23 00:02:37;;;;;;;21.60;2.78;;;;;;;;;;5091618;28;20055;-69
2023/04/23 00:05:04;;;;;;;19.88;2.92;;;;;;;;;;5092690;28;20476;-68
2023/04/23 00:07:31;;;;;;;24.20;2.10;;;;;;;;;;5092556;28;20647;-69
2023/04/23 00:09:58;;;;;;;16.20;1.85;;;;;;;;;;5092766;28;20024;-71
2023/04/23 00:12:24;;;;;;;20.00;1.95;;;;;;;;;;5092756;28;20034;-69
2023/04/23 00:14:50;;;;;;;30.23;3.53;;;;;;;;;;5092567;28;20030;-69
2023/04/23 00:17:16;;;;;;;20.40;2.28;;;;;;;;;;5091812;28;20106;-69
2023/04/23 00:19:42;;;;;;;20.27;2.42;;;;;;;;;;5092472;28;20093;-68
2023/04/23 00:22:08;;;;;;;13.25;2.08;;;;;;;;;;5092424;28;20545;-69
2023/04/23 00:24:37;;;;;;;15.88;2.33;;;;;;;;;;5092687;28;20400;-69
2023/04/23 00:27:04;;;;;;;19.88;3.20;;;;;;;;;;5092434;28;20024;-70
2023/04/23 00:29:30;;;;;;;15.25;3.00;;;;;;;;;;5092543;28;20054;-69
2023/04/23 00:31:56;;;;;;;15.77;2.60;;;;;;;;;;5092306;28;20507;-69
2023/04/23 00:34:22;;;;;;;17.63;2.95;;;;;;;;;;5092501;28;20024;-70
2023/04/23 00:36:48;;;;;;;24.13;2.63;;;;;;;;;;5092443;28;20058;-69
2023/04/23 00:39:14;;;;;;;20.63;3.17;;;;;;;;;;5092110;28;20020;-70
2023/04/23 00:41:41;;;;;;;24.27;3.70;;;;;;;;;;5092231;28;20028;-68
2023/04/23 00:44:11;;;;;;;20.15;2.67;;;;;;;;;;5092009;28;20020;-69
2023/04/23 00:46:38;;;;;;;15.82;2.22;;;;;;;;;;5091782;28;20055;-68
2023/04/23 00:49:04;;;;;;;20.15;2.72;;;;;;;;;;5092044;28;20055;-68
2023/04/23 00:51:31;;;;;;;15.48;2.42;;;;;;;;;;5092148;28;20076;-69
2023/04/23 00:53:57;;;;;;;25.00;3.65;;;;;;;;;;5091986;28;20012;-69
2023/04/23 00:56:24;;;;;;;24.10;3.17;;;;;;;;;;5091959;28;20142;-69
2023/04/23 00:58:53;;;;;;;20.60;2.60;;;;;;;;;;5091847;28;20488;-69
2023/04/23 01:01:22;;;;;;;18.35;2.47;;;;;;;;;;5091666;28;20031;-69
2023/04/23 01:03:49;;;;;;;17.70;2.35;;;;;;;;;;5091751;28;20103;-69
2023/04/23 01:06:15;;;;;;;20.30;2.95;;;;;;;;;;5091650;28;20039;-66
2023/04/23 01:08:45;;;;;;;15.20;2.45;;;;;;;;;;5091677;28;20020;-69
2023/04/23 01:11:13;;;;;;;24.88;2.10;;;;;;;;;;5090380;28;20032;-68
2023/04/23 01:13:39;;;;;;;14.77;2.20;;;;;;;;;;5091239;28;20441;-69
2023/04/23 01:16:05;;;;;;;20.40;2.33;;;;;;;;;;5091667;28;20541;-69
2023/04/23 01:18:31;;;;;;;18.92;2.13;;;;;;;;;;5091454;28;20019;-68
2023/04/23 01:20:58;;;;;;;13.82;2.58;;;;;;;;;;5090295;28;20452;-69
2023/04/23 01:23:25;;;;;;;12.23;2.08;;;;;;;;;;5090025;28;20067;-68
2023/04/23 01:25:52;;;;;;;25.10;3.88;;;;;;;;;;5091291;28;20078;-69
2023/04/23 01:28:18;;;;;;;16.25;3.05;;;;;;;;;;5091289;28;20063;-70
2023/04/23 01:30:44;;;;;;;20.52;2.50;;;;;;;;;;5090050;28;20120;-69
2023/04/23 01:33:11;;;;;;;11.43;1.80;;;;;;;;;;5091315;28;20089;-70
2023/04/23 01:35:37;;;;;;;17.63;2.10;;;;;;;;;;5091220;28;20062;-69
2023/04/23 01:38:03;;;;;;;15.77;2.35;;;;;;;;;;5091102;28;20047;-70
2023/04/23 01:40:29;;;;;;;15.27;1.83;;;;;;;;;;5091218;28;20020;-69
2023/04/23 01:42:56;;;;;;;15.75;2.00;;;;;;;;;;5091255;28;20028;-70
2023/04/23 01:45:22;;;;;;;26.08;3.50;;;;;;;;;;5091123;28;20023;-69
2023/04/23 01:47:48;;;;;;;16.45;3.15;;;;;;;;;;5090759;28;20040;-69
2023/04/23 01:50:15;;;;;;;25.30;2.50;;;;;;;;;;5091109;28;20070;-68
2023/04/23 01:52:41;;;;;;;17.80;2.28;;;;;;;;;;5091222;28;20024;-68
2023/04/23 01:55:08;;;;;;;29.80;2.70;;;;;;;;;;5091123;28;20373;-67
2023/04/23 01:57:34;;;;;;;18.67;2.60;;;;;;;;;;5091111;28;20396;-68
2023/04/23 02:00:10;;;;;;;18.45;2.53;;;;;;;;;;5090917;28;20388;-68
2023/04/23 02:02:36;;;;;;;20.80;2.30;;;;;;;;;;5091078;28;20024;-69
2023/04/23 02:05:05;;;;;;;19.67;2.35;;;;;;;;;;5091177;28;20024;-68
2023/04/23 02:07:32;;;;;;;19.20;2.47;;;;;;;;;;5091038;28;20036;-68
2023/04/23 02:09:58;;;;;;;19.90;3.05;;;;;;;;;;5090794;28;20022;-69
2023/04/23 02:12:25;;;;;;;18.00;2.20;;;;;;;;;;5091130;28;20109;-69
2023/04/23 02:14:51;;;;;;;22.90;3.25;;;;;;;;;;5090941;28;20382;-68
2023/04/23 02:17:18;;;;;;;13.18;1.80;;;;;;;;;;5090869;28;20487;-68
2023/04/23 02:19:44;;;;;;;11.70;1.95;;;;;;;;;;5090799;28;20032;-67
2023/04/23 02:22:10;;;;;;;13.95;2.30;;;;;;;;;;5090923;28;20107;-68
2023/04/23 02:24:37;;;;;;;18.02;2.70;;;;;;;;;;5090600;28;20024;-68
2023/04/23 02:27:03;;;;;;;23.20;3.38;;;;;;;;;;5090686;28;20548;-68
2023/04/23 02:29:30;;;;;;;15.25;2.70;;;;;;;;;;5091275;28;20040;-68
2023/04/23 02:31:56;;;;;;;18.42;3.65;;;;;;;;;;5090908;28;20085;-66
2023/04/23 02:34:22;;;;;;;24.65;2.95;;;;;;;;;;5090665;28;20054;-67
2023/04/23 02:36:48;;;;;;;26.33;3.85;;;;;;;;;;5090919;28;20032;-67
2023/04/23 02:39:14;;;;;;;29.25;4.30;;;;;;;;;;5090679;28;20044;-65
2023/04/23 02:41:40;;;;;;;19.25;3.88;;;;;;;;;;5094555;28;20480;-67
2023/04/23 02:44:06;;;;;;;26.30;3.72;;;;;;;;;;5094287;28;20456;-67
2023/04/23 02:46:32;;;;;;;38.55;4.68;;;;;;;;;;5093998;28;20384;-66
2023/04/23 02:48:58;;;;;;;24.30;4.30;;;;;;;;;;5094149;28;20027;-67
2023/04/23 02:51:26;;;;;;;33.88;3.63;;;;;;;;;;5099453;27;20034;-67
2023/04/23 02:53:52;;;;;;;23.65;3.47;;;;;;;;;;5114184;28;20031;-66
2023/04/23 02:56:18;;;;;;;29.98;3.20;;;;;;;;;;5114694;28;20067;-66
2023/04/23 02:58:44;;;;;;;30.48;4.97;;;;;;;;;;5112994;28;20486;-67
2023/04/23 03:01:10;;;;;;;32.65;4.78;;;;;;;;;;5114407;28;20111;-66
2023/04/23 03:03:36;;;;;;;33.38;3.90;;;;;;;;;;5114427;28;20020;-67
2023/04/23 03:06:03;;;;;;;37.10;5.28;;;;;;;;;;5112899;28;20106;-67
2023/04/23 03:08:29;;;;;;;47.13;5.28;;;;;;;;;;5113550;28;20090;-67
2023/04/23 03:10:55;;;;;;;31.90;4.13;;;;;;;;;;5095551;28;20028;-67
2023/04/23 03:13:21;;;;;;;37.47;4.38;;;;;;;;;;5093806;28;20594;-68
2023/04/23 03:15:47;;;;;;;38.35;4.75;;;;;;;;;;5093832;28;20064;-68
2023/04/23 03:18:13;;;;;;;56.10;6.68;;;;;;;;;;5093688;28;20375;-69
2023/04/23 03:20:39;;;;;;;37.50;5.18;;;;;;;;;;5093503;28;20100;-68
2023/04/23 03:23:05;;;;;;;34.15;6.88;;;;;;;;;;5093614;28;20559;-69
2023/04/23 03:25:32;;;;;;;31.25;5.97;;;;;;;;;;5094237;28;20024;-68
2023/04/23 03:27:59;;;;;;;37.30;5.45;;;;;;;;;;5092230;28;20423;-69
2023/04/23 03:30:26;;;;;;;32.03;5.07;;;;;;;;;;5093638;28;20042;-67
2023/04/23 03:32:52;;;;;;;52.28;6.00;;;;;;;;;;5093601;28;20353;-68
2023/04/23 03:35:19;;;;;;;35.55;5.63;;;;;;;;;;5093369;28;20016;-69
2023/04/23 03:37:45;;;;;;;41.15;5.97;;;;;;;;;;5093208;28;20024;-68
2023/04/23 03:40:11;;;;;;;39.63;6.93;;;;;;;;;;5093304;28;20030;-69
2023/04/23 03:42:37;;;;;;;35.50;5.95;;;;;;;;;;5094102;28;20070;-68
2023/04/23 03:45:03;;;;;;;31.45;4.60;;;;;;;;;;5093288;28;20074;-69
2023/04/23 03:47:29;;;;;;;29.15;4.43;;;;;;;;;;5092626;28;20140;-69
2023/04/23 03:49:56;;;;;;;36.50;5.97;;;;;;;;;;5093126;28;20031;-68
2023/04/23 03:52:22;;;;;;;40.25;5.63;;;;;;;;;;5107584;28;20031;-69
2023/04/23 03:54:48;;;;;;;34.60;4.53;;;;;;;;;;5108773;28;20020;-68
2023/04/23 03:57:15;;;;;;;41.45;4.82;;;;;;;;;;5092842;28;20024;-69
2023/04/23 03:59:41;;;;;;;42.90;5.90;;;;;;;;;;5106483;28;20099;-69
2023/04/23 04:02:07;;;;;;;42.17;5.43;;;;;;;;;;5092882;28;20027;-69
2023/04/23 04:04:33;;;;;;;32.20;4.80;;;;;;;;;;5092727;28;20023;-69
2023/04/23 04:06:59;;;;;;;34.90;6.43;;;;;;;;;;5092626;28;20044;-69
2023/04/23 04:09:26;;;;;;;36.55;5.18;;;;;;;;;;5092543;28;20020;-68
2023/04/23 04:11:55;;;;;;;45.40;5.25;;;;;;;;;;5092844;28;20513;-69
2023/04/23 04:14:21;;;;;;;33.25;3.92;;;;;;;;;;5091501;28;20024;-69
2023/04/23 04:16:47;;;;;;;35.42;5.57;;;;;;;;;;5093146;28;20035;-70
2023/04/23 04:19:13;;;;;;;29.77;4.45;;;;;;;;;;5092575;28;20031;-70
2023/04/23 04:21:39;;;;;;;31.73;4.40;;;;;;;;;;5092491;28;20024;-70
2023/04/23 04:24:06;;;;;;;28.15;5.00;;;;;;;;;;5092469;28;20063;-71
2023/04/23 04:26:33;;;;;;;35.88;5.70;;;;;;;;;;5092478;28;20540;-70
2023/04/23 04:29:00;;;;;;;38.00;4.65;;;;;;;;;;5092371;28;20038;-70
2023/04/23 04:31:27;;;;;;;40.83;5.43;;;;;;;;;;5092513;28;20045;-70
2023/04/23 04:33:54;;;;;;;33.97;5.15;;;;;;;;;;5092804;28;20127;-71
2023/04/23 04:36:20;;;;;;;31.25;4.10;;;;;;;;;;5107971;28;20028;-72
2023/04/23 04:38:46;;;;;;;39.30;5.18;;;;;;;;;;5092082;28;20024;-72
2023/04/23 04:41:12;;;;;;;36.80;4.97;;;;;;;;;;5092150;28;20026;-71
2023/04/23 04:43:40;;;;;;;34.95;7.63;;;;;;;;;;5092157;28;20046;-72
2023/04/23 04:46:06;;;;;;;44.65;5.82;;;;;;;;;;5091669;28;20480;-73
2023/04/23 04:48:32;;;;;;;41.45;5.15;;;;;;;;;;5091992;28;20032;-73
2023/04/23 04:50:58;;;;;;;36.38;4.60;;;;;;;;;;5091514;28;20024;-71
2023/04/23 04:53:24;;;;;;;36.80;5.25;;;;;;;;;;5101290;28;20015;-72
2023/04/23 04:55:50;;;;;;;31.52;5.40;;;;;;;;;;5112324;28;20028;-69
2023/04/23 04:58:16;;;;;;;38.65;5.97;;;;;;;;;;5095742;28;20028;-68
2023/04/23 05:00:43;;;;;;;29.40;4.90;;;;;;;;;;5091771;28;20052;-67
2023/04/23 05:03:09;;;;;;;28.70;4.57;;;;;;;;;;5091532;28;20024;-69
2023/04/23 05:05:36;;;;;;;35.33;5.38;;;;;;;;;;5091705;28;20028;-69
2023/04/23 05:08:02;;;;;;;30.38;5.45;;;;;;;;;;5092405;28;20119;-69
2023/04/23 05:10:28;;;;;;;25.77;5.25;;;;;;;;;;5091336;28;20605;-69
2023/04/23 05:12:55;;;;;;;32.20;5.78;;;;;;;;;;5091589;28;20497;-69
2023/04/23 05:15:21;;;;;;;34.13;6.68;;;;;;;;;;5091416;28;20103;-68
2023/04/23 05:17:52;;;;;;;31.10;6.15;;;;;;;;;;5091294;28;20028;-69
2023/04/23 05:20:18;;;;;;;40.55;7.55;;;;;;;;;;5091522;28;20633;-71
2023/04/23 05:22:44;;;;;;;32.53;7.80;;;;;;;;;;5101693;28;20462;-69
2023/04/23 05:25:11;;;;;;;42.00;7.07;;;;;;;;;;5111650;28;20055;-70
2023/04/23 05:27:37;;;;;;;45.53;7.82;;;;;;;;;;5111616;28;20035;-68
2023/04/23 05:30:04;;;;;;;36.90;7.55;;;;;;;;;;5102226;28;20069;-69
2023/04/23 05:32:31;;;;;;;38.17;6.68;;;;;;;;;;5104113;28;20024;-69
2023/04/23 05:34:58;;;;;;;43.83;9.25;;;;;;;;;;5111614;28;20020;-69
2023/04/23 05:37:24;;;;;;;36.97;6.82;;;;;;;;;;5091487;28;20102;-70
2023/04/23 05:39:50;;;;;;;31.33;6.68;;;;;;;;;;5095462;28;20626;-70
2023/04/23 05:42:17;;;;;;;35.22;6.95;;;;;;;;;;5100881;28;20024;-69
2023/04/23 05:44:43;;;;;;;33.92;8.15;;;;;;;;;;5090812;28;20511;-69
2023/04/23 05:47:10;;;;;;;38.10;7.95;;;;;;;;;;5110587;28;20039;-69
2023/04/23 05:49:36;;;;;;;39.53;7.10;;;;;;;;;;5109448;28;20055;-70
2023/04/23 05:52:02;;;;;;;31.92;6.60;;;;;;;;;;5111273;28;20046;-70
2023/04/23 05:54:28;;;;;;;35.08;7.35;;;;;;;;;;5111448;28;20028;-70
2023/04/23 05:56:55;;;;;;;27.65;6.60;;;;;;;;;;5111225;28;20066;-70
2023/04/23 05:59:21;;;;;;;28.52;5.53;;;;;;;;;;5100124;28;20120;-70
2023/04/23 06:01:48;;;;;;;35.95;7.22;;;;;;;;;;5103404;28;20081;-69
2023/04/23 06:04:14;;;;;;;38.38;6.43;;;;;;;;;;5111406;28;20023;-70
2023/04/23 06:06:40;;;;;;;44.20;7.90;;;;;;;;;;5111064;28;20035;-69
2023/04/23 06:09:07;;;;;;;31.15;6.40;;;;;;;;;;5111223;28;20034;-69
2023/04/23 06:11:34;;;;;;;39.80;6.90;;;;;;;;;;5108341;28;20027;-69
2023/04/23 06:14:01;;;;;;;46.22;6.00;;;;;;;;;;5110432;28;20034;-70
2023/04/23 06:16:27;;;;;;;32.88;6.63;;;;;;;;;;5102950;28;20024;-71
2023/04/23 06:18:55;;;;;;;36.50;5.78;;;;;;;;;;5094813;28;20087;-69
2023/04/23 06:21:21;;;;;;;38.83;7.78;;;;;;;;;;5094751;28;20505;-71
2023/04/23 06:23:47;;;;;;;34.50;7.07;;;;;;;;;;5094891;28;20081;-70
2023/04/23 06:26:14;;;;;;;38.67;7.00;;;;;;;;;;5112789;28;20467;-71
2023/04/23 06:28:41;;;;;;;28.27;5.00;;;;;;;;;;5109933;28;20028;-71
2023/04/23 06:31:07;;;;;;;32.00;5.45;;;;;;;;;;5115086;28;20034;-70
2023/04/23 06:33:35;;;;;;;41.33;6.00;;;;;;;;;;5101718;28;20067;-70
2023/04/23 06:36:01;;;;;;;28.77;5.20;;;;;;;;;;5104451;28;20502;-71
2023/04/23 06:38:27;;;;;;;29.77;5.65;;;;;;;;;;5103261;28;20030;-71
2023/04/23 06:40:53;;;;;;;30.90;5.70;;;;;;;;;;5114028;28;20028;-72
2023/04/23 06:43:19;;;;;;;37.08;6.07;;;;;;;;;;5094263;28;20024;-72
2023/04/23 06:45:46;;;;;;;31.25;7.65;;;;;;;;;;5094222;28;20107;-70
2023/04/23 06:48:12;;;;;;;33.35;5.43;;;;;;;;;;5093867;28;20094;-70
2023/04/23 06:50:39;;;;;;;43.10;5.88;;;;;;;;;;5107355;28;20024;-71
2023/04/23 06:53:05;;;;;;;28.10;5.95;;;;;;;;;;5114677;28;20091;-71
2023/04/23 06:55:31;;;;;;;27.15;4.80;;;;;;;;;;5114339;28;20379;-72
2023/04/23 06:57:57;;;;;;;37.67;4.68;;;;;;;;;;5110243;28;20102;-71
2023/04/23 07:00:23;;;;;;;37.88;5.78;;;;;;;;;;5096470;28;20027;-72
2023/04/23 07:02:50;;;;;;;33.60;6.28;;;;;;;;;;5114262;28;20024;-71
2023/04/23 07:05:18;;;;;;;24.58;4.57;;;;;;;;;;5112766;28;20100;-70
2023/04/23 07:07:45;;;;;;;27.65;5.20;;;;;;;;;;5106317;28;20396;-70
2023/04/23 07:10:11;;;;;;;34.25;5.55;;;;;;;;;;5110213;28;20554;-71
2023/04/23 07:12:38;;;;;;;34.58;5.75;;;;;;;;;;5114293;28;20042;-71
2023/04/23 07:15:05;;;;;;;33.35;4.47;;;;;;;;;;5114101;28;20031;-69
2023/04/23 07:17:31;;;;;;;27.88;5.72;;;;;;;;;;5100157;28;20028;-71
2023/04/23 07:19:57;;;;;;;23.75;4.75;;;;;;;;;;5093285;28;20024;-70
2023/04/23 07:22:24;;;;;;;30.17;5.07;;;;;;;;;;5104463;28;20019;-69
2023/04/23 07:24:50;;;;;;;35.63;6.95;;;;;;;;;;5103102;28;20111;-71
2023/04/23 07:27:16;;;;;;;28.38;4.57;;;;;;;;;;5093214;28;20294;-70
2023/04/23 07:29:42;;;;;;;26.48;4.55;;;;;;;;;;5108044;28;20089;-70
2023/04/23 07:32:08;;;;;;;34.92;5.57;;;;;;;;;;5104132;28;20055;-70
2023/04/23 07:34:37;;;;;;;25.58;4.25;;;;;;;;;;5108576;28;20031;-69
2023/04/23 07:37:03;;;;;;;30.48;4.45;;;;;;;;;;5105884;28;20026;-68
2023/04/23 07:39:29;;;;;;;32.83;4.57;;;;;;;;;;5107768;28;20504;-70
2023/04/23 07:41:58;;;;;;;29.02;4.95;;;;;;;;;;5106064;28;20063;-78
2023/04/23 07:44:24;;;;;;;29.02;3.72;;;;;;;;;;5112295;28;20020;-75
2023/04/23 07:46:51;;;;;;;25.52;3.92;;;;;;;;;;5112163;28;20047;-74
2023/04/23 07:49:17;;;;;;;27.48;4.88;;;;;;;;;;5093326;28;20032;-71
2023/04/23 07:51:43;;;;;;;22.77;4.80;;;;;;;;;;5096400;27;20031;-76
2023/04/23 07:54:10;;;;;;;27.23;4.63;;;;;;;;;;5113406;28;20031;-77
2023/04/23 07:56:36;;;;;;;28.27;4.65;;;;;;;;;;5112332;28;20019;-76
2023/04/23 07:59:04;;;;;;;31.65;3.97;;;;;;;;;;5113550;28;20030;-76
2023/04/23 08:01:30;;;;;;;26.52;3.40;;;;;;;;;;5098058;28;20112;-78
2023/04/23 08:03:56;;;;;;;24.48;3.80;;;;;;;;;;5106321;27;20021;-78
2023/04/23 08:06:22;;;;;;;26.88;3.45;;;;;;;;;;5107318;27;20016;-73
2023/04/23 08:08:49;;;;;;;24.00;3.53;;;;;;;;;;5092980;28;20028;-76
2023/04/23 08:11:15;;;;;;;25.98;3.58;;;;;;;;;;5104069;28;20899;-72
2023/04/23 08:13:41;;;;;;;28.35;3.88;;;;;;;;;;5112571;28;20115;-70
2023/04/23 08:16:07;;;;;;;29.60;3.90;;;;;;;;;;5112292;28;20023;-72
2023/04/23 08:18:34;;;;;;;20.33;4.10;;;;;;;;;;5104237;28;20077;-68
2023/04/23 08:21:01;;;;;;;24.20;3.55;;;;;;;;;;5094580;28;20012;-69
2023/04/23 08:23:27;;;;;;;16.40;2.70;;;;;;;;;;5099903;28;20028;-69
2023/04/23 08:25:53;;;;;;;24.23;3.58;;;;;;;;;;5102121;28;20028;-66
2023/04/23 08:28:19;;;;;;;19.13;2.95;;;;;;;;;;5093786;28;20027;-69
2023/04/23 08:30:46;;;;;;;20.42;3.15;;;;;;;;;;5111518;28;20027;-68
2023/04/23 08:33:12;;;;;;;18.45;3.00;;;;;;;;;;5107761;28;20059;-67
2023/04/23 08:35:38;;;;;;;13.27;3.58;;;;;;;;;;5112548;28;20028;-67
2023/04/23 08:38:04;;;;;;;15.82;2.10;;;;;;;;;;5107707;28;20052;-66
2023/04/23 08:40:31;;;;;;;13.95;2.42;;;;;;;;;;5109436;28;20043;-68
2023/04/23 08:43:01;;;;;;;12.48;1.90;;;;;;;;;;5092414;28;20012;-68
2023/04/23 08:45:27;;;;;;;17.20;1.98;;;;;;;;;;5093571;28;20016;-67
2023/04/23 08:47:57;;;;;;;22.13;2.58;;;;;;;;;;5091466;28;20040;-68
2023/04/23 08:50:24;;;;;;;16.55;2.25;;;;;;;;;;5091822;28;20016;-66
2023/04/23 08:52:54;;;;;;;16.80;3.70;;;;;;;;;;5091699;28;20075;-69
2023/04/23 08:55:20;;;;;;;11.63;2.00;;;;;;;;;;5091366;28;20020;-67
2023/04/23 08:57:47;;;;;;;19.25;2.03;;;;;;;;;;5091833;28;20056;-69
2023/04/23 09:00:15;;;;;;;14.52;3.33;;;;;;;;;;5091679;28;20031;-71
2023/04/23 09:02:45;;;;;;;18.13;2.75;;;;;;;;;;5091500;28;20030;-68
2023/04/23 09:05:12;;;;;;;13.52;2.15;;;;;;;;;;5091772;28;20119;-69
2023/04/23 09:07:39;;;;;;;20.38;3.50;;;;;;;;;;5091627;28;20115;-66
2023/04/23 09:10:06;;;;;;;13.95;2.25;;;;;;;;;;5091607;28;20039;-67
2023/04/23 09:12:32;;;;;;;23.80;2.65;;;;;;;;;;5090983;28;20094;-67
2023/04/23 09:14:58;;;;;;;14.35;2.53;;;;;;;;;;5091212;28;20028;-67
2023/04/23 09:17:27;;;;;;;19.50;2.30;;;;;;;;;;5091449;28;20024;-68
2023/04/23 09:19:54;;;;;;;16.55;2.97;;;;;;;;;;5091438;28;20024;-68
2023/04/23 09:22:39;;;;;;;9.27;2.28;;;;;;;;;;5091405;28;20031;-70
2023/04/23 09:25:05;;;;;;;17.98;2.10;;;;;;;;;;5091286;28;20505;-68
2023/04/23 09:27:31;;;;;;;17.27;1.80;;;;;;;;;;5090913;28;20042;-70
2023/04/23 09:29:59;;;;;;;11.68;1.75;;;;;;;;;;5091344;28;20354;-69
2023/04/23 09:32:34;;;;;;;11.10;2.75;;;;;;;;;;5091363;28;20035;-66
2023/04/23 09:35:04;;;;;;;15.60;2.08;;;;;;;;;;5091358;28;20024;-68
2023/04/23 09:37:30;;;;;;;12.77;2.00;;;;;;;;;;5089809;28;20052;-68
2023/04/23 09:40:04;;;;;;;17.58;2.00;;;;;;;;;;5089926;28;20032;-69
2023/04/23 09:42:30;;;;;;;5.55;1.33;;;;;;;;;;5090504;28;20077;-70
2023/04/23 09:44:57;;;;;;;14.95;1.67;;;;;;;;;;5091218;28;20024;-69
2023/04/23 09:47:24;;;;;;;12.35;1.60;;;;;;;;;;5090517;28;20052;-67
2023/04/23 09:49:50;;;;;;;10.15;1.73;;;;;;;;;;5093966;28;20028;-67
2023/04/23 09:52:17;;;;;;;6.85;1.35;;;;;;;;;;5095460;28;20095;-68
2023/04/23 09:54:46;;;;;;;7.95;1.25;;;;;;;;;;5095127;28;20035;-68
2023/04/23 09:57:14;;;;;;;10.20;1.60;;;;;;;;;;5095117;28;20476;-68
2023/04/23 09:59:40;;;;;;;13.55;1.55;;;;;;;;;;5094601;28;20028;-65
2023/04/23 10:02:07;;;;;;;13.38;1.30;;;;;;;;;;5095132;28;20485;-67
2023/04/23 10:04:33;;;;;;;12.77;2.10;;;;;;;;;;5094990;28;20156;-66
2023/04/23 10:07:02;;;;;;;7.60;1.20;;;;;;;;;;5095023;28;20024;-63
2023/04/23 10:09:28;;;;;;;7.70;1.48;;;;;;;;;;5095009;28;20028;-63
2023/04/23 10:11:55;;;;;;;10.95;1.52;;;;;;;;;;5095094;28;20058;-65
2023/04/23 10:14:22;;;;;;;6.70;1.20;;;;;;;;;;5094638;28;20089;-65
2023/04/23 10:16:51;;;;;;;8.57;1.48;;;;;;;;;;5094971;28;20043;-65
2023/04/23 10:19:21;;;;;;;11.48;1.30;;;;;;;;;;5094507;28;20055;-63
2023/04/23 10:22:08;;;;;;;9.45;1.30;;;;;;;;;;5094728;28;20024;-64
2023/04/23 10:24:35;;;;;;;6.25;1.08;;;;;;;;;;5094370;28;20419;-63
2023/04/23 10:27:02;;;;;;;13.02;1.77;;;;;;;;;;5094600;28;20031;-63
2023/04/23 10:29:32;;;;;;;8.25;1.20;;;;;;;;;;5094089;28;20020;-65
2023/04/23 10:31:59;;;;;;;11.90;1.70;;;;;;;;;;5094269;28;20023;-71
2023/04/23 10:34:26;;;;;;;10.00;1.52;;;;;;;;;;5112994;28;20020;-72
2023/04/23 10:36:52;;;;;;;11.10;1.38;;;;;;;;;;5113704;28;20027;-79
2023/04/23 10:39:22;;;;;;;5.28;0.93;;;;;;;;;;5114344;28;20051;-76
2023/04/23 10:41:48;;;;;;;6.25;1.13;;;;;;;;;;5114629;28;20110;-78
2023/04/23 10:44:19;;;;;;;9.02;2.00;;;;;;;;;;5100843;28;20031;-77
2023/04/23 10:46:52;;;;;;;8.65;1.30;;;;;;;;;;5093721;28;20052;-75
2023/04/23 10:49:18;;;;;;;4.32;1.02;;;;;;;;;;5094113;28;20546;-74
2023/04/23 10:51:48;;;;;;;5.47;0.85;;;;;;;;;;5093975;28;20602;-72
2023/04/23 10:54:15;;;;;;;3.83;0.68;;;;;;;;;;5094191;28;20062;-70
2023/04/23 10:56:41;;;;;;;6.53;0.90;;;;;;;;;;5094237;28;20103;-71
2023/04/23 10:59:08;;;;;;;4.72;1.20;;;;;;;;;;5094298;28;20036;-71
2023/04/23 11:01:34;;;;;;;10.32;1.70;;;;;;;;;;5092550;28;20495;-69
2023/04/23 11:04:19;;;;;;;4.82;1.10;;;;;;;;;;5093730;28;20021;-68
2023/04/23 11:06:49;;;;;;;5.88;1.30;;;;;;;;;;5094233;28;20530;-68
2023/04/23 11:09:33;;;;;;;5.30;1.13;;;;;;;;;;5099976;28;20020;-65
2023/04/23 11:12:01;;;;;;;9.68;0.95;;;;;;;;;;5113913;28;20034;-65
2023/04/23 11:14:36;;;;;;;9.02;1.58;;;;;;;;;;5114069;28;20024;-67
2023/04/23 11:17:05;;;;;;;7.88;2.00;;;;;;;;;;5114138;28;20080;-66
2023/04/23 11:19:35;;;;;;;5.93;0.85;;;;;;;;;;5113927;28;20102;-67
2023/04/23 11:22:07;;;;;;;5.35;1.33;;;;;;;;;;5112599;28;20024;-69
2023/04/23 11:24:40;;;;;;;5.87;1.00;;;;;;;;;;5093393;28;20103;-69
2023/04/23 11:27:07;;;;;;;4.70;1.00;;;;;;;;;;5093414;28;20142;-64
2023/04/23 11:29:34;;;;;;;10.05;1.60;;;;;;;;;;5093521;28;20031;-63
2023/04/23 11:32:00;;;;;;;11.35;1.75;;;;;;;;;;5093294;28;20035;-63
2023/04/23 11:34:26;;;;;;;6.00;1.20;;;;;;;;;;5093391;28;20020;-64
2023/04/23 11:36:56;;;;;;;9.75;1.75;;;;;;;;;;5093447;28;20029;-64
2023/04/23 11:39:25;;;;;;;7.38;1.20;;;;;;;;;;5092289;28;20022;-64
2023/04/23 11:41:51;;;;;;;4.80;1.67;;;;;;;;;;5092655;28;20062;-64
2023/04/23 11:44:19;;;;;;;3.65;1.15;;;;;;;;;;5091774;28;20024;-64
2023/04/23 11:46:46;;;;;;;8.75;1.08;;;;;;;;;;5092015;28;20044;-64
2023/04/23 11:49:13;;;;;;;3.03;0.77;;;;;;;;;;5091161;28;20019;-64
2023/04/23 11:51:45;;;;;;;5.40;1.08;;;;;;;;;;5091172;28;20093;-63
2023/04/23 11:54:12;;;;;;;9.40;0.88;;;;;;;;;;5091529;28;20020;-65
2023/04/23 11:56:38;;;;;;;6.28;0.73;;;;;;;;;;5090641;28;20016;-66
2023/04/23 11:59:05;;;;;;;0.90;0.50;;;;;;;;;;5091575;28;20103;-64
2023/04/23 12:01:41;;;;;;;3.15;0.70;;;;;;;;;;5091648;28;20024;-64
2023/04/23 12:04:26;;;;;;;3.13;0.50;;;;;;;;;;5093036;28;20047;-65
2023/04/23 12:06:53;;;;;;;1.95;0.40;;;;;;;;;;5110361;28;20049;-65
2023/04/23 12:09:20;;;;;;;3.90;0.60;;;;;;;;;;5112768;28;20544;-65
2023/04/23 12:11:46;;;;;;;3.67;0.70;;;;;;;;;;5112617;28;20027;-65
2023/04/23 12:14:13;;;;;;;5.35;0.88;;;;;;;;;;5108500;28;20059;-65
2023/04/23 12:16:43;;;;;;;3.88;1.00;;;;;;;;;;5095878;28;20019;-72
2023/04/23 12:19:13;;;;;;;4.63;1.00;;;;;;;;;;5112401;28;20019;-73
2023/04/23 12:21:56;;;;;;;4.80;1.17;;;;;;;;;;5110569;28;20076;-73
2023/04/23 12:24:23;;;;;;;3.97;0.80;;;;;;;;;;5112542;28;20030;-73
2023/04/23 12:26:53;;;;;;;3.47;0.80;;;;;;;;;;5112646;28;20036;-70
2023/04/23 12:29:20;;;;;;;5.03;1.27;;;;;;;;;;5112476;28;20047;-67
2023/04/23 12:31:47;;;;;;;2.47;0.95;;;;;;;;;;5095055;28;20036;-67
2023/04/23 12:34:15;;;;;;;3.08;1.02;;;;;;;;;;5091045;28;20544;-67
2023/04/23 12:36:44;;;;;;;2.85;0.80;;;;;;;;;;5092208;28;20026;-68
2023/04/23 12:39:28;;;;;;;5.88;0.57;;;;;;;;;;5092033;28;20521;-67
2023/04/23 12:41:56;;;;;;;6.00;0.60;;;;;;;;;;5092139;28;20024;-68
2023/04/23 12:44:22;;;;;;;1.83;0.57;;;;;;;;;;5092264;28;20495;-67
2023/04/23 12:46:58;;;;;;;3.40;0.85;;;;;;;;;;5091213;28;20044;-67
2023/04/23 12:49:25;;;;;;;2.20;0.85;;;;;;;;;;5091799;28;20495;-67
2023/04/23 12:51:56;;;;;;;2.97;0.90;;;;;;;;;;5091864;28;20028;-65
2023/04/23 12:54:22;;;;;;;4.65;1.15;;;;;;;;;;5092242;28;20178;-64
2023/04/23 12:56:48;;;;;;;4.90;1.52;;;;;;;;;;5091929;28;20027;-65
2023/04/23 12:59:14;;;;;;;5.30;1.45;;;;;;;;;;5091793;28;20115;-65
2023/04/23 13:01:40;;;;;;;3.38;1.73;;;;;;;;;;5091461;28;20467;-66
2023/04/23 13:04:06;;;;;;;4.50;1.73;;;;;;;;;;5111762;28;20673;-67
2023/04/23 13:06:32;;;;;;;2.55;1.67;;;;;;;;;;5112015;28;20024;-65
2023/04/23 13:09:02;;;;;;;3.50;1.42;;;;;;;;;;5112106;28;20507;-65
2023/04/23 13:11:28;;;;;;;3.83;1.77;;;;;;;;;;5111845;28;20241;-66
2023/04/23 13:13:54;;;;;;;7.38;1.98;;;;;;;;;;5111992;28;20023;-65
2023/04/23 13:16:20;;;;;;;3.20;2.00;;;;;;;;;;5112018;28;20027;-66
2023/04/23 13:18:47;;;;;;;6.38;1.90;;;;;;;;;;5094927;28;20030;-64
2023/04/23 13:21:13;;;;;;;5.53;1.85;;;;;;;;;;5091614;28;20066;-65
2023/04/23 13:23:39;;;;;;;4.47;1.70;;;;;;;;;;5091166;28;20071;-65
2023/04/23 13:26:07;;;;;;;5.57;2.30;;;;;;;;;;5091296;28;20053;-65
2023/04/23 13:28:33;;;;;;;7.22;2.70;;;;;;;;;;5091664;28;20118;-65
2023/04/23 13:30:59;;;;;;;10.73;4.00;;;;;;;;;;5091221;28;20024;-65
2023/04/23 13:33:25;;;;;;;8.45;3.72;;;;;;;;;;5091358;28;20555;-64
2023/04/23 13:35:51;;;;;;;10.20;5.28;;;;;;;;;;5091067;28;20028;-64
2023/04/23 13:38:17;;;;;;;9.52;4.57;;;;;;;;;;5089907;28;20016;-65
2023/04/23 13:40:43;;;;;;;7.32;4.10;;;;;;;;;;5091256;28;20058;-63
2023/04/23 13:43:09;;;;;;;8.38;3.33;;;;;;;;;;5091329;28;20024;-64
2023/04/23 13:45:35;;;;;;;7.50;4.95;;;;;;;;;;5091304;28;20020;-64
2023/04/23 13:48:01;;;;;;;4.30;3.45;;;;;;;;;;5090657;28;20063;-64
2023/04/23 13:50:28;;;;;;;5.07;3.10;;;;;;;;;;5090772;28;20024;-65
2023/04/23 13:52:54;;;;;;;5.88;3.35;;;;;;;;;;5091121;28;20081;-65
2023/04/23 13:55:20;;;;;;;4.38;2.00;;;;;;;;;;5091282;28;20016;-65
2023/04/23 13:57:46;;;;;;;4.60;1.80;;;;;;;;;;5091199;28;20042;-64
2023/04/23 14:00:12;;;;;;;2.25;0.95;;;;;;;;;;5091069;28;20116;-63
2023/04/23 14:02:38;;;;;;;1.15;0.70;;;;;;;;;;5091052;28;20056;-64
2023/04/23 14:05:05;;;;;;;3.42;0.73;;;;;;;;;;5091093;28;20020;-64
2023/04/23 14:07:31;;;;;;;1.25;0.68;;;;;;;;;;5090479;28;20427;-64
2023/04/23 14:09:57;;;;;;;1.58;0.88;;;;;;;;;;5090847;28;20035;-64
2023/04/23 14:12:25;;;;;;;1.25;0.90;;;;;;;;;;5091136;28;20039;-64
2023/04/23 14:14:51;;;;;;;1.88;0.77;;;;;;;;;;5090817;28;20074;-63
2023/04/23 14:17:17;;;;;;;0.77;0.70;;;;;;;;;;5090884;28;20028;-63
2023/04/23 14:19:43;;;;;;;0.85;0.52;;;;;;;;;;5091036;28;20028;-64
2023/04/23 14:22:09;;;;;;;1.42;0.90;;;;;;;;;;5090925;28;20024;-63
2023/04/23 14:24:39;;;;;;;2.38;1.30;;;;;;;;;;5090241;28;20512;-64
2023/04/23 14:27:05;;;;;;;2.42;1.58;;;;;;;;;;5090557;28;20043;-63
2023/04/23 14:29:41;;;;;;;2.03;1.45;;;;;;;;;;5090769;28;20035;-63
2023/04/23 14:32:07;;;;;;;2.13;1.73;;;;;;;;;;5090992;28;20063;-63